createdAt,value
2022-12-26T00:00:13.751Z,8.24
2022-12-26T00:01:13.633Z,8.27
2022-12-26T00:02:13.639Z,8.23
2022-12-26T00:03:14.060Z,8.27
2022-12-26T00:04:56.489Z,8.28
2022-12-26T00:05:13.659Z,8.31
2022-12-26T00:06:13.616Z,8.32
2022-12-26T00:07:13.775Z,8.38
2022-12-26T00:08:13.629Z,8.36
2022-12-26T00:09:16.424Z,8.34
2022-12-26T00:10:13.646Z,8.39
2022-12-26T00:11:13.640Z,8.36
2022-12-26T00:12:13.642Z,8.34
2022-12-26T00:13:45.264Z,8.38
2022-12-26T00:14:13.647Z,8.32
2022-12-26T00:15:13.755Z,8.34
2022-12-26T00:16:13.819Z,8.31
2022-12-26T00:17:13.643Z,8.27
2022-12-26T00:18:13.674Z,8.35
2022-12-26T00:19:13.679Z,8.36
2022-12-26T00:20:14.923Z,8.23
2022-12-26T00:21:13.706Z,8.36
2022-12-26T00:22:13.693Z,8.35
2022-12-26T00:23:13.680Z,8.41
2022-12-26T00:24:13.646Z,8.36
2022-12-26T00:25:13.694Z,8.36
2022-12-26T00:26:13.640Z,8.35
2022-12-26T00:27:13.653Z,8.36
2022-12-26T00:28:13.653Z,8.44
2022-12-26T00:29:13.833Z,8.41
2022-12-26T00:30:13.699Z,8.45
2022-12-26T00:31:13.857Z,8.46
2022-12-26T00:32:14.601Z,8.46
2022-12-26T00:33:13.687Z,8.52
2022-12-26T00:34:13.674Z,8.46
2022-12-26T00:35:13.676Z,8.42
2022-12-26T00:36:13.712Z,8.45
2022-12-26T00:37:13.667Z,8.46
2022-12-26T00:38:13.673Z,8.52
2022-12-26T00:39:13.702Z,8.44
2022-12-26T00:40:13.824Z,8.52
2022-12-26T00:41:13.721Z,8.46
2022-12-26T00:42:13.681Z,8.39
2022-12-26T00:43:13.666Z,8.38
2022-12-26T00:44:13.662Z,8.49
2022-12-26T00:45:13.718Z,8.49
2022-12-26T00:46:13.685Z,8.49
2022-12-26T00:47:14.039Z,8.45
2022-12-26T00:48:13.699Z,8.57
2022-12-26T00:49:13.673Z,8.56
2022-12-26T00:50:19.178Z,8.57
2022-12-26T00:51:13.719Z,8.5
2022-12-26T00:52:16.707Z,8.63
2022-12-26T00:53:13.698Z,8.6
2022-12-26T00:54:13.697Z,8.57
2022-12-26T00:55:13.715Z,8.64
2022-12-26T00:56:13.709Z,8.52
2022-12-26T00:57:13.713Z,8.6
2022-12-26T00:58:13.698Z,8.57
2022-12-26T00:59:13.689Z,8.74
2022-12-26T01:00:13.721Z,8.66
2022-12-26T01:01:14.326Z,8.68
2022-12-26T01:02:14.616Z,8.66
2022-12-26T01:03:17.166Z,8.53
2022-12-26T01:04:13.692Z,8.56
2022-12-26T01:05:13.725Z,8.59
2022-12-26T01:06:13.706Z,8.57
2022-12-26T01:07:13.708Z,8.52
2022-12-26T01:08:27.907Z,8.59
2022-12-26T01:09:13.725Z,8.63
2022-12-26T01:10:13.705Z,8.57
2022-12-26T01:11:13.709Z,8.5
2022-12-26T01:12:13.718Z,8.5
2022-12-26T01:13:13.739Z,8.49
2022-12-26T01:14:13.892Z,8.53
2022-12-26T01:15:13.728Z,8.42
2022-12-26T01:16:13.966Z,8.5
2022-12-26T01:17:13.724Z,8.5
2022-12-26T01:18:13.709Z,8.64
2022-12-26T01:19:14.281Z,8.63
2022-12-26T01:20:13.732Z,8.69
2022-12-26T01:21:13.735Z,8.72
2022-12-26T01:22:13.730Z,8.77
2022-12-26T01:23:13.754Z,8.79
2022-12-26T01:24:13.785Z,8.75
2022-12-26T01:25:16.984Z,8.84
2022-12-26T01:26:27.055Z,8.84
2022-12-26T01:27:13.725Z,8.89
2022-12-26T01:28:13.771Z,8.84
2022-12-26T01:29:13.755Z,8.82
2022-12-26T01:30:13.751Z,8.79
2022-12-26T01:31:13.996Z,8.86
2022-12-26T01:32:13.985Z,8.78
2022-12-26T01:33:13.819Z,8.78
2022-12-26T01:34:13.743Z,8.71
2022-12-26T01:35:13.790Z,8.92
2022-12-26T01:36:16.972Z,8.97
2022-12-26T01:37:13.754Z,8.81
2022-12-26T01:38:13.723Z,8.79
2022-12-26T01:39:13.767Z,8.81
2022-12-26T01:40:13.783Z,8.9
2022-12-26T01:41:14.228Z,8.93
2022-12-26T01:42:13.740Z,8.79
2022-12-26T01:43:13.770Z,8.79
2022-12-26T01:44:13.761Z,8.69
2022-12-26T01:45:13.765Z,8.74
2022-12-26T01:46:14.016Z,8.75
2022-12-26T01:47:16.613Z,8.79
2022-12-26T01:48:13.779Z,8.71
2022-12-26T01:49:13.795Z,8.75
2022-12-26T01:50:13.766Z,8.72
2022-12-26T01:51:13.841Z,8.64
2022-12-26T01:52:16.627Z,8.6
2022-12-26T01:53:13.766Z,8.64
2022-12-26T01:54:46.218Z,8.57
2022-12-26T01:55:13.765Z,8.64
2022-12-26T01:56:13.868Z,8.66
2022-12-26T01:57:13.786Z,8.56
2022-12-26T01:58:16.778Z,8.49
2022-12-26T01:59:13.964Z,8.64
2022-12-26T02:00:13.771Z,8.46
2022-12-26T02:01:14.467Z,8.44
2022-12-26T02:02:14.490Z,8.44
2022-12-26T02:03:16.924Z,8.49
2022-12-26T02:04:13.791Z,8.53
2022-12-26T02:05:13.824Z,8.46
2022-12-26T02:06:13.815Z,8.52
2022-12-26T02:07:13.809Z,8.5
2022-12-26T02:08:13.794Z,8.63
2022-12-26T02:09:16.566Z,8.54
2022-12-26T02:10:13.795Z,8.53
2022-12-26T02:11:13.817Z,8.5
2022-12-26T02:12:41.480Z,8.46
2022-12-26T02:13:13.809Z,8.6
2022-12-26T02:14:16.818Z,8.59
2022-12-26T02:15:13.916Z,8.66
2022-12-26T02:16:14.058Z,8.64
2022-12-26T02:17:13.832Z,8.63
2022-12-26T02:18:13.813Z,8.66
2022-12-26T02:19:13.818Z,8.66
2022-12-26T02:20:13.867Z,8.68
2022-12-26T02:21:13.861Z,8.5
2022-12-26T02:22:13.810Z,8.53
2022-12-26T02:23:13.821Z,8.56
2022-12-26T02:24:13.833Z,8.63
2022-12-26T02:25:16.857Z,8.56
2022-12-26T02:26:13.884Z,8.64
2022-12-26T02:27:13.806Z,8.49
2022-12-26T02:28:13.814Z,8.5
2022-12-26T02:29:13.863Z,8.41
2022-12-26T02:30:13.831Z,8.45
2022-12-26T02:31:13.862Z,8.59
2022-12-26T02:32:14.007Z,8.41
2022-12-26T02:33:13.862Z,8.53
2022-12-26T02:34:14.026Z,8.56
2022-12-26T02:35:13.838Z,8.54
2022-12-26T02:36:16.891Z,8.57
2022-12-26T02:37:13.845Z,8.46
2022-12-26T02:38:13.848Z,8.63
2022-12-26T02:39:50.705Z,8.57
2022-12-26T02:40:13.825Z,8.68
2022-12-26T02:41:13.853Z,8.66
2022-12-26T02:42:13.850Z,8.74
2022-12-26T02:43:14.073Z,8.78
2022-12-26T02:44:13.830Z,8.71
2022-12-26T02:45:13.843Z,8.74
2022-12-26T02:46:14.082Z,8.84
2022-12-26T02:47:16.641Z,8.9
2022-12-26T02:48:13.865Z,8.96
2022-12-26T02:49:13.877Z,9
2022-12-26T02:50:13.870Z,8.93
2022-12-26T02:51:13.875Z,9.13
2022-12-26T02:52:14.018Z,9.02
2022-12-26T02:53:13.850Z,9.11
2022-12-26T02:54:13.867Z,9.08
2022-12-26T02:55:13.886Z,9.08
2022-12-26T02:56:13.879Z,9.05
2022-12-26T02:57:13.896Z,9.09
2022-12-26T02:58:13.938Z,9.13
2022-12-26T02:59:13.868Z,9.16
2022-12-26T03:00:13.877Z,9.15
2022-12-26T03:01:14.370Z,9.19
2022-12-26T03:02:14.572Z,9.26
2022-12-26T03:03:14.143Z,9.3
2022-12-26T03:04:13.864Z,9.27
2022-12-26T03:05:13.892Z,9.22
2022-12-26T03:06:13.888Z,9.31
2022-12-26T03:07:13.957Z,9.33
2022-12-26T03:08:13.901Z,9.34
2022-12-26T03:09:13.871Z,9.36
2022-12-26T03:10:13.934Z,9.42
2022-12-26T03:11:13.921Z,9.29
2022-12-26T03:12:13.965Z,9.51
2022-12-26T03:13:13.924Z,9.51
2022-12-26T03:14:13.898Z,9.51
2022-12-26T03:15:13.903Z,9.49
2022-12-26T03:16:14.034Z,9.49
2022-12-26T03:17:14.267Z,9.55
2022-12-26T03:18:13.971Z,9.49
2022-12-26T03:19:16.969Z,9.51
2022-12-26T03:20:13.963Z,9.51
2022-12-26T03:21:13.928Z,9.49
2022-12-26T03:22:13.928Z,9.54
2022-12-26T03:23:13.977Z,9.49
2022-12-26T03:24:13.921Z,9.48
2022-12-26T03:25:13.900Z,9.44
2022-12-26T03:26:13.902Z,9.47
2022-12-26T03:27:13.954Z,9.49
2022-12-26T03:28:19.511Z,9.42
2022-12-26T03:29:21.106Z,9.45
2022-12-26T03:30:16.950Z,9.39
2022-12-26T03:31:14.249Z,9.29
2022-12-26T03:32:13.942Z,9.24
2022-12-26T03:33:13.906Z,9.31
2022-12-26T03:34:13.944Z,9.31
2022-12-26T03:35:13.937Z,9.29
2022-12-26T03:36:13.926Z,9.27
2022-12-26T03:37:13.965Z,9.18
2022-12-26T03:38:13.938Z,9.22
2022-12-26T03:39:13.926Z,9.22
2022-12-26T03:40:13.949Z,9.27
2022-12-26T03:41:16.989Z,9.13
2022-12-26T03:42:13.983Z,9.13
2022-12-26T03:43:13.927Z,9.08
2022-12-26T03:44:13.947Z,9.08
2022-12-26T03:45:13.924Z,9.13
2022-12-26T03:46:14.033Z,9.03
2022-12-26T03:47:13.945Z,9.09
2022-12-26T03:48:13.944Z,9.02
2022-12-26T03:49:13.925Z,8.97
2022-12-26T03:50:13.972Z,9.05
2022-12-26T03:51:13.967Z,9.05
2022-12-26T03:52:16.906Z,9.11
2022-12-26T03:53:13.964Z,9.08
2022-12-26T03:54:13.938Z,9.11
2022-12-26T03:55:13.954Z,9.18
2022-12-26T03:56:13.977Z,9.16
2022-12-26T03:57:13.983Z,9.08
2022-12-26T03:58:13.956Z,9.18
2022-12-26T03:59:14.229Z,9.12
2022-12-26T04:00:13.984Z,9.24
2022-12-26T04:01:14.723Z,9.15
2022-12-26T04:02:14.359Z,9.16
2022-12-26T04:03:16.912Z,9.13
2022-12-26T04:04:14.159Z,9.13
2022-12-26T04:05:13.946Z,9.15
2022-12-26T04:06:13.971Z,9.18
2022-12-26T04:07:13.992Z,9.19
2022-12-26T04:08:23.091Z,9.18
2022-12-26T04:09:13.987Z,9.16
2022-12-26T04:10:13.980Z,9.13
2022-12-26T04:11:13.958Z,9.09
2022-12-26T04:12:14.018Z,9.13
2022-12-26T04:13:13.971Z,9.18
2022-12-26T04:14:16.737Z,9.09
2022-12-26T04:15:13.999Z,9.09
2022-12-26T04:16:14.219Z,9.12
2022-12-26T04:17:14.275Z,9.11
2022-12-26T04:18:14.042Z,9.11
2022-12-26T04:19:17.138Z,9.03
2022-12-26T04:20:14.028Z,9.02
2022-12-26T04:21:13.980Z,9.11
2022-12-26T04:22:14.055Z,9.15
2022-12-26T04:23:14.010Z,9
2022-12-26T04:24:14.088Z,9.21
2022-12-26T04:25:16.861Z,9.13
2022-12-26T04:26:13.991Z,9.18
2022-12-26T04:27:14.006Z,9.12
2022-12-26T04:28:14.003Z,9.13
2022-12-26T04:29:14.029Z,9.11
2022-12-26T04:30:16.898Z,9
2022-12-26T04:31:14.230Z,8.96
2022-12-26T04:32:14.017Z,8.93
2022-12-26T04:33:14.002Z,8.97
2022-12-26T04:34:14.073Z,8.95
2022-12-26T04:35:14.012Z,8.95
2022-12-26T04:36:14.018Z,8.89
2022-12-26T04:37:14.042Z,8.84
2022-12-26T04:38:13.988Z,8.87
2022-12-26T04:39:14.015Z,8.89
2022-12-26T04:40:14.079Z,8.79
2022-12-26T04:41:16.834Z,8.79
2022-12-26T04:42:14.037Z,8.87
2022-12-26T04:43:55.012Z,8.89
2022-12-26T04:44:14.027Z,8.75
2022-12-26T04:45:14.189Z,8.86
2022-12-26T04:46:14.155Z,8.87
2022-12-26T04:47:14.054Z,8.81
2022-12-26T04:48:14.032Z,8.86
2022-12-26T04:49:14.022Z,8.89
2022-12-26T04:50:14.076Z,8.81
2022-12-26T04:51:14.079Z,8.9
2022-12-26T04:52:17.338Z,8.84
2022-12-26T04:53:14.017Z,8.89
2022-12-26T04:54:14.024Z,8.74
2022-12-26T04:55:14.017Z,8.78
2022-12-26T04:56:14.101Z,8.78
2022-12-26T04:57:14.069Z,8.86
2022-12-26T04:58:14.030Z,8.84
2022-12-26T04:59:14.052Z,8.9
2022-12-26T05:00:15.182Z,8.86
2022-12-26T05:01:14.426Z,8.81
2022-12-26T05:02:14.585Z,8.82
2022-12-26T05:03:23.285Z,8.74
2022-12-26T05:04:14.049Z,8.82
2022-12-26T05:05:14.081Z,8.72
2022-12-26T05:06:14.037Z,8.72
2022-12-26T05:07:14.220Z,8.78
2022-12-26T05:08:14.040Z,8.69
2022-12-26T05:09:14.255Z,8.81
2022-12-26T05:10:14.076Z,8.78
2022-12-26T05:11:14.060Z,8.77
2022-12-26T05:12:14.134Z,8.66
2022-12-26T05:13:14.056Z,8.81
2022-12-26T05:14:16.961Z,8.74
2022-12-26T05:15:14.067Z,8.71
2022-12-26T05:16:14.383Z,8.77
2022-12-26T05:17:14.112Z,8.69
2022-12-26T05:18:14.351Z,8.74
2022-12-26T05:19:14.394Z,8.79
2022-12-26T05:20:14.453Z,8.77
2022-12-26T05:21:14.087Z,8.79
2022-12-26T05:22:14.092Z,8.84
2022-12-26T05:23:14.097Z,8.79
2022-12-26T05:24:14.198Z,8.86
2022-12-26T05:25:14.215Z,8.79
2022-12-26T05:26:14.255Z,8.84
2022-12-26T05:27:14.240Z,8.96
2022-12-26T05:28:14.112Z,9.03
2022-12-26T05:29:14.079Z,8.97
2022-12-26T05:30:14.147Z,9.12
2022-12-26T05:31:14.358Z,9
2022-12-26T05:32:14.133Z,8.9
2022-12-26T05:33:14.081Z,8.97
2022-12-26T05:34:14.151Z,8.93
2022-12-26T05:35:14.082Z,8.93
2022-12-26T05:36:14.092Z,8.92
2022-12-26T05:37:14.142Z,9.03
2022-12-26T05:38:14.110Z,9.09
2022-12-26T05:39:14.134Z,9.16
2022-12-26T05:40:14.119Z,9.21
2022-12-26T05:41:14.128Z,9.29
2022-12-26T05:42:14.127Z,9.24
2022-12-26T05:43:14.102Z,9.3
2022-12-26T05:44:14.237Z,9.31
2022-12-26T05:45:14.152Z,9.31
2022-12-26T05:46:17.503Z,9.3
2022-12-26T05:47:14.152Z,9.4
2022-12-26T05:48:14.143Z,9.37
2022-12-26T05:49:14.124Z,9.47
2022-12-26T05:50:14.148Z,9.56
2022-12-26T05:51:14.131Z,9.62
2022-12-26T05:52:14.163Z,9.62
2022-12-26T05:53:14.130Z,9.63
2022-12-26T05:54:14.176Z,9.55
2022-12-26T05:55:19.001Z,9.66
2022-12-26T05:56:14.140Z,9.69
2022-12-26T05:57:16.075Z,9.76
2022-12-26T05:58:14.176Z,9.69
2022-12-26T05:59:14.132Z,9.72
2022-12-26T06:00:14.144Z,9.8
2022-12-26T06:01:14.407Z,9.73
2022-12-26T06:02:14.764Z,9.84
2022-12-26T06:03:14.703Z,9.72
2022-12-26T06:04:14.141Z,9.87
2022-12-26T06:05:14.212Z,9.92
2022-12-26T06:06:14.215Z,9.92
2022-12-26T06:07:14.185Z,9.95
2022-12-26T06:08:16.968Z,10.09
2022-12-26T06:09:14.163Z,10.18
2022-12-26T06:10:14.131Z,10.2
2022-12-26T06:11:14.160Z,10.3
2022-12-26T06:12:14.184Z,10.23
2022-12-26T06:13:14.168Z,10.24
2022-12-26T06:14:14.161Z,10.41
2022-12-26T06:15:14.155Z,10.46
2022-12-26T06:16:14.490Z,10.46
2022-12-26T06:17:14.164Z,10.58
2022-12-26T06:18:14.194Z,10.57
2022-12-26T06:19:16.925Z,10.58
2022-12-26T06:20:14.171Z,10.64
2022-12-26T06:21:14.179Z,10.67
2022-12-26T06:22:14.194Z,10.71
2022-12-26T06:23:14.165Z,10.71
2022-12-26T06:24:14.173Z,10.89
2022-12-26T06:25:14.162Z,11
2022-12-26T06:26:14.180Z,10.86
2022-12-26T06:27:14.199Z,11.1
2022-12-26T06:28:14.361Z,11.01
2022-12-26T06:29:14.184Z,11.13
2022-12-26T06:30:17.287Z,11.16
2022-12-26T06:31:14.367Z,11.04
2022-12-26T06:32:14.279Z,11.12
2022-12-26T06:33:14.198Z,11.1
2022-12-26T06:34:14.201Z,11.15
2022-12-26T06:35:17.341Z,11.1
2022-12-26T06:36:14.223Z,11.05
2022-12-26T06:37:14.242Z,11.16
2022-12-26T06:38:14.224Z,11.22
2022-12-26T06:39:14.206Z,11.22
2022-12-26T06:40:14.237Z,11.26
2022-12-26T06:41:17.728Z,11.22
2022-12-26T06:42:14.255Z,11.26
2022-12-26T06:43:14.204Z,11.27
2022-12-26T06:44:22.327Z,11.26
2022-12-26T06:45:14.219Z,11.26
2022-12-26T06:46:17.546Z,11.23
2022-12-26T06:47:14.488Z,11.31
2022-12-26T06:48:14.252Z,11.31
2022-12-26T06:49:14.205Z,11.23
2022-12-26T06:50:14.316Z,11.31
2022-12-26T06:51:14.205Z,11.31
2022-12-26T06:52:17.834Z,11.23
2022-12-26T06:53:14.203Z,11.31
2022-12-26T06:54:14.233Z,11.18
2022-12-26T06:55:14.229Z,11.31
2022-12-26T06:56:14.278Z,11.2
2022-12-26T06:57:17.032Z,11.27
2022-12-26T06:58:14.217Z,11.25
2022-12-26T06:59:14.207Z,11.2
2022-12-26T07:00:14.218Z,11.23
2022-12-26T07:01:15.173Z,11.26
2022-12-26T07:02:14.649Z,11.33
2022-12-26T07:03:17.548Z,11.19
2022-12-26T07:04:14.235Z,11.2
2022-12-26T07:05:14.232Z,11.23
2022-12-26T07:06:14.261Z,11.25
2022-12-26T07:07:14.239Z,11.22
2022-12-26T07:08:17.404Z,11.22
2022-12-26T07:09:14.252Z,11.15
2022-12-26T07:10:14.322Z,11.2
2022-12-26T07:11:14.232Z,11.26
2022-12-26T07:12:14.236Z,11.22
2022-12-26T07:13:14.268Z,11.25
2022-12-26T07:14:14.244Z,11.27
2022-12-26T07:15:14.275Z,11.26
2022-12-26T07:16:14.432Z,11.35
2022-12-26T07:17:14.267Z,11.34
2022-12-26T07:18:14.277Z,11.23
2022-12-26T07:19:17.193Z,11.34
2022-12-26T07:20:14.261Z,11.35
2022-12-26T07:21:14.273Z,11.43
2022-12-26T07:22:14.302Z,11.41
2022-12-26T07:23:14.118Z,11.41
2022-12-26T07:24:14.271Z,11.35
2022-12-26T07:25:14.334Z,11.45
2022-12-26T07:26:14.329Z,11.35
2022-12-26T07:27:14.269Z,11.27
2022-12-26T07:28:14.318Z,11.48
2022-12-26T07:29:14.274Z,11.48
2022-12-26T07:30:17.408Z,11.45
2022-12-26T07:31:14.564Z,11.52
2022-12-26T07:32:14.505Z,11.44
2022-12-26T07:33:14.295Z,11.48
2022-12-26T07:34:14.317Z,11.49
2022-12-26T07:35:14.157Z,11.45
2022-12-26T07:36:14.269Z,11.48
2022-12-26T07:37:14.328Z,11.51
2022-12-26T07:38:14.326Z,11.45
2022-12-26T07:39:14.310Z,11.4
2022-12-26T07:40:14.285Z,11.49
2022-12-26T07:41:17.030Z,11.48
2022-12-26T07:42:14.335Z,11.44
2022-12-26T07:43:14.300Z,11.44
2022-12-26T07:44:14.281Z,11.48
2022-12-26T07:45:14.337Z,11.38
2022-12-26T07:46:14.445Z,11.37
2022-12-26T07:47:14.303Z,11.45
2022-12-26T07:48:14.344Z,11.41
2022-12-26T07:49:14.320Z,11.48
2022-12-26T07:50:14.305Z,11.44
2022-12-26T07:51:14.165Z,11.49
2022-12-26T07:52:14.332Z,11.37
2022-12-26T07:53:14.361Z,11.4
2022-12-26T07:54:16.173Z,11.41
2022-12-26T07:55:14.320Z,11.49
2022-12-26T07:56:14.342Z,11.43
2022-12-26T07:57:52.007Z,11.45
2022-12-26T07:58:14.365Z,11.52
2022-12-26T07:59:14.338Z,11.49
2022-12-26T08:00:14.310Z,11.38
2022-12-26T08:01:14.890Z,11.35
2022-12-26T08:02:15.111Z,11.51
2022-12-26T08:03:14.861Z,11.45
2022-12-26T08:04:14.344Z,11.52
2022-12-26T08:05:14.248Z,11.51
2022-12-26T08:06:14.169Z,11.45
2022-12-26T08:07:14.203Z,11.38
2022-12-26T08:08:14.376Z,11.43
2022-12-26T08:09:14.368Z,11.43
2022-12-26T08:10:14.361Z,11.44
2022-12-26T08:11:14.343Z,11.43
2022-12-26T08:12:14.345Z,11.45
2022-12-26T08:13:17.152Z,11.44
2022-12-26T08:14:14.395Z,11.49
2022-12-26T08:15:14.373Z,11.41
2022-12-26T08:16:14.510Z,11.56
2022-12-26T08:17:14.513Z,11.43
2022-12-26T08:18:14.358Z,11.48
2022-12-26T08:19:14.340Z,11.41
2022-12-26T08:20:14.371Z,11.53
2022-12-26T08:21:14.394Z,11.53
2022-12-26T08:22:14.350Z,11.44
2022-12-26T08:23:14.400Z,11.51
2022-12-26T08:24:17.381Z,11.44
2022-12-26T08:25:18.316Z,11.45
2022-12-26T08:26:14.382Z,11.53
2022-12-26T08:27:14.362Z,11.48
2022-12-26T08:28:14.405Z,11.4
2022-12-26T08:29:14.434Z,11.49
2022-12-26T08:30:14.398Z,11.49
2022-12-26T08:31:14.398Z,11.43
2022-12-26T08:32:14.368Z,11.55
2022-12-26T08:33:14.371Z,11.41
2022-12-26T08:34:14.398Z,11.49
2022-12-26T08:35:17.220Z,11.43
2022-12-26T08:36:14.383Z,11.44
2022-12-26T08:37:14.391Z,11.44
2022-12-26T08:38:14.408Z,11.44
2022-12-26T08:39:14.463Z,11.35
2022-12-26T08:40:15.473Z,11.48
2022-12-26T08:41:14.394Z,11.41
2022-12-26T08:42:14.444Z,11.48
2022-12-26T08:44:27.090Z,11.44
2022-12-26T08:44:36.855Z,11.44
2022-12-26T08:45:36.894Z,11.45
2022-12-26T08:46:36.911Z,11.49
2022-12-26T08:47:36.791Z,11.45
2022-12-26T08:48:40.225Z,11.43
2022-12-26T08:49:36.669Z,11.44
2022-12-26T08:50:43.892Z,11.38
2022-12-26T08:51:36.848Z,11.52
2022-12-26T08:52:36.804Z,11.43
2022-12-26T08:53:36.489Z,11.51
2022-12-26T08:54:36.859Z,11.52
2022-12-26T08:55:36.811Z,11.58
2022-12-26T08:56:36.816Z,11.56
2022-12-26T08:57:36.969Z,11.63
2022-12-26T08:58:37.006Z,11.65
2022-12-26T08:59:39.604Z,11.6
2022-12-26T09:00:36.835Z,11.65
2022-12-26T09:01:37.413Z,11.71
2022-12-26T09:02:37.678Z,11.74
2022-12-26T09:03:36.968Z,11.86
2022-12-26T09:04:36.845Z,11.7
2022-12-26T09:05:36.855Z,11.85
2022-12-26T09:06:36.812Z,11.91
2022-12-26T09:07:36.835Z,11.86
2022-12-26T09:08:36.843Z,11.96
2022-12-26T09:09:36.839Z,12
2022-12-26T09:10:40.027Z,12.02
2022-12-26T09:11:36.841Z,12.02
2022-12-26T09:12:36.856Z,12.07
2022-12-26T09:13:36.881Z,12.07
2022-12-26T09:14:36.856Z,12.05
2022-12-26T09:15:39.628Z,12.1
2022-12-26T09:16:51.123Z,12.14
2022-12-26T09:17:37.097Z,12.21
2022-12-26T09:18:36.867Z,12.14
2022-12-26T09:19:36.876Z,12.2
2022-12-26T09:20:36.855Z,12.21
2022-12-26T09:21:36.906Z,12.23
2022-12-26T09:22:39.877Z,12.39
2022-12-26T09:23:36.884Z,12.28
2022-12-26T09:24:36.888Z,12.26
2022-12-26T09:25:36.867Z,12.35
2022-12-26T09:26:36.958Z,12.29
2022-12-26T09:27:36.858Z,12.3
2022-12-26T09:28:36.885Z,12.39
2022-12-26T09:29:36.897Z,12.32
2022-12-26T09:30:37.076Z,12.37
2022-12-26T09:31:36.922Z,12.45
2022-12-26T09:32:37.024Z,12.37
2022-12-26T09:33:36.920Z,12.44
2022-12-26T09:34:36.884Z,12.37
2022-12-26T09:35:36.893Z,12.37
2022-12-26T09:36:36.917Z,12.37
2022-12-26T09:37:36.887Z,12.45
2022-12-26T09:38:36.905Z,12.35
2022-12-26T09:39:36.900Z,12.35
2022-12-26T09:40:36.914Z,12.45
2022-12-26T09:41:37.085Z,12.21
2022-12-26T09:42:39.683Z,12.33
2022-12-26T09:43:36.896Z,12.32
2022-12-26T09:44:36.909Z,12.51
2022-12-26T09:45:36.908Z,12.35
2022-12-26T09:46:37.182Z,12.33
2022-12-26T09:47:36.911Z,12.32
2022-12-26T09:48:36.904Z,12.35
2022-12-26T09:49:36.948Z,12.37
2022-12-26T09:50:43.588Z,12.33
2022-12-26T09:51:36.918Z,12.37
2022-12-26T09:52:36.901Z,12.39
2022-12-26T09:53:39.824Z,12.35
2022-12-26T09:54:36.918Z,12.3
2022-12-26T09:55:36.968Z,12.25
2022-12-26T09:57:15.432Z,12.2
2022-12-26T09:57:37.061Z,12.25
2022-12-26T09:58:40.085Z,12.32
2022-12-26T09:59:37.494Z,12.23
2022-12-26T10:00:37.838Z,12.26
2022-12-26T10:01:38.035Z,12.26
2022-12-26T10:02:38.033Z,12.2
2022-12-26T10:03:38.347Z,12.3
2022-12-26T10:04:41.698Z,12.21
2022-12-26T10:05:38.030Z,12.3
2022-12-26T10:06:36.953Z,12.21
2022-12-26T10:07:37.005Z,12.29
2022-12-26T10:08:38.549Z,12.25
2022-12-26T10:09:41.266Z,12.23
2022-12-26T10:10:37.616Z,12.32
2022-12-26T10:11:38.446Z,12.32
2022-12-26T10:12:38.474Z,12.25
2022-12-26T10:13:36.942Z,12.17
2022-12-26T10:14:37.028Z,12.18
2022-12-26T10:15:40.072Z,12.17
2022-12-26T10:16:36.968Z,12.25
2022-12-26T10:17:36.992Z,12.21
2022-12-26T10:18:36.954Z,12.23
2022-12-26T10:19:40.367Z,12.25
2022-12-26T10:20:39.977Z,12.17
2022-12-26T10:21:36.992Z,12.2
2022-12-26T10:22:36.937Z,12.18
2022-12-26T10:23:36.974Z,12.26
2022-12-26T10:24:37.020Z,12.21
2022-12-26T10:25:38.767Z,12.26
2022-12-26T10:26:36.972Z,12.29
2022-12-26T10:27:36.962Z,12.26
2022-12-26T10:28:36.953Z,12.3
2022-12-26T10:29:37.017Z,12.25
2022-12-26T10:30:36.975Z,12.35
2022-12-26T10:31:39.972Z,12.28
2022-12-26T10:32:36.979Z,12.29
2022-12-26T10:33:36.993Z,12.32
2022-12-26T10:34:37.063Z,12.32
2022-12-26T10:35:37.005Z,12.23
2022-12-26T10:36:37.092Z,12.15
2022-12-26T10:37:37.004Z,12.23
2022-12-26T10:38:36.977Z,12.25
2022-12-26T10:39:37.024Z,12.1
2022-12-26T10:40:37.021Z,12.11
2022-12-26T10:41:37.003Z,12.1
2022-12-26T10:42:39.867Z,12.15
2022-12-26T10:43:37.000Z,12.12
2022-12-26T10:44:37.168Z,12.1
2022-12-26T10:45:37.002Z,12.07
2022-12-26T10:46:37.394Z,12.02
2022-12-26T10:47:37.008Z,11.97
2022-12-26T10:48:36.997Z,12.1
2022-12-26T10:49:37.203Z,12.07
2022-12-26T10:50:37.008Z,12.07
2022-12-26T10:51:37.013Z,11.99
2022-12-26T10:52:37.147Z,11.96
2022-12-26T10:53:39.909Z,11.96
2022-12-26T10:54:37.056Z,11.86
2022-12-26T10:55:39.661Z,11.89
2022-12-26T10:56:37.041Z,11.93
2022-12-26T10:57:37.037Z,11.91
2022-12-26T10:58:37.060Z,11.93
2022-12-26T10:59:37.145Z,11.8
2022-12-26T11:00:37.050Z,11.83
2022-12-26T11:01:37.620Z,11.88
2022-12-26T11:02:37.695Z,11.81
2022-12-26T11:03:37.141Z,11.86
2022-12-26T11:06:18.359Z,11.83
2022-12-26T11:07:17.932Z,11.89
2022-12-26T11:08:20.915Z,11.77
2022-12-26T11:09:18.891Z,11.81
2022-12-26T11:10:17.972Z,11.83
2022-12-26T11:11:17.955Z,11.89
2022-12-26T11:12:17.993Z,11.78
2022-12-26T11:13:20.924Z,11.85
2022-12-26T11:14:17.887Z,11.99
2022-12-26T11:15:17.933Z,11.78
2022-12-26T11:16:18.111Z,11.77
2022-12-26T11:17:18.086Z,11.76
2022-12-26T11:18:17.916Z,11.83
2022-12-26T11:19:20.759Z,11.8
2022-12-26T11:20:17.943Z,11.8
2022-12-26T11:21:17.956Z,11.93
2022-12-26T11:22:17.915Z,11.86
2022-12-26T11:23:17.912Z,11.83
2022-12-26T11:24:21.032Z,11.83
2022-12-26T11:25:17.929Z,11.71
2022-12-26T11:26:17.953Z,11.81
2022-12-26T11:27:17.921Z,11.85
2022-12-26T11:28:17.956Z,11.74
2022-12-26T11:29:17.945Z,11.74
2022-12-26T11:30:17.943Z,11.76
2022-12-26T11:31:18.034Z,11.88
2022-12-26T11:32:18.977Z,11.81
2022-12-26T11:33:19.601Z,11.85
2022-12-26T11:34:17.950Z,11.89
2022-12-26T11:35:18.147Z,11.78
2022-12-26T11:36:17.926Z,11.83
2022-12-26T11:37:17.924Z,11.83
2022-12-26T11:38:17.945Z,11.76
2022-12-26T11:39:17.916Z,11.68
2022-12-26T11:40:18.123Z,11.76
2022-12-26T11:41:17.952Z,11.76
2022-12-26T11:42:17.941Z,11.88
2022-12-26T11:43:17.949Z,11.85
2022-12-26T11:44:18.246Z,11.81
2022-12-26T11:45:17.960Z,11.65
2022-12-26T11:46:21.107Z,11.73
2022-12-26T11:47:17.964Z,11.77
2022-12-26T11:48:17.942Z,11.77
2022-12-26T11:49:18.036Z,12
2022-12-26T11:50:17.998Z,11.85
2022-12-26T11:51:17.969Z,11.89
2022-12-26T11:52:17.975Z,11.8
2022-12-26T11:53:17.980Z,11.89
2022-12-26T11:54:17.982Z,11.73
2022-12-26T11:55:18.089Z,11.83
2022-12-26T11:56:18.013Z,11.88
2022-12-26T11:57:21.047Z,11.68
2022-12-26T11:58:17.949Z,11.74
2022-12-26T11:59:17.947Z,11.77
2022-12-26T12:00:18.052Z,11.74
2022-12-26T12:01:18.229Z,11.74
2022-12-26T12:02:18.125Z,11.86
2022-12-26T12:03:18.229Z,11.86
2022-12-26T12:04:17.972Z,11.86
2022-12-26T12:05:18.018Z,11.85
2022-12-26T12:06:18.100Z,11.99
2022-12-26T12:07:17.973Z,11.83
2022-12-26T12:08:20.846Z,11.89
2022-12-26T12:09:17.988Z,11.95
2022-12-26T12:10:18.068Z,11.88
2022-12-26T12:11:17.971Z,11.99
2022-12-26T12:12:18.086Z,11.99
2022-12-26T12:13:25.034Z,12.02
2022-12-26T12:14:18.032Z,11.99
2022-12-26T12:15:18.028Z,11.96
2022-12-26T12:16:18.097Z,12
2022-12-26T12:17:18.179Z,12.03
2022-12-26T12:18:17.978Z,12
2022-12-26T12:19:21.109Z,12.12
2022-12-26T12:20:18.262Z,12.17
2022-12-26T12:21:18.142Z,12.21
2022-12-26T12:22:17.985Z,12.2
2022-12-26T12:23:18.014Z,12.11
2022-12-26T12:24:18.056Z,12.18
2022-12-26T12:25:18.092Z,12.11
2022-12-26T12:26:18.019Z,12.03
2022-12-26T12:27:18.030Z,12.08
2022-12-26T12:28:18.054Z,12.11
2022-12-26T12:29:18.051Z,12
2022-12-26T12:30:18.154Z,11.96
2022-12-26T12:31:18.336Z,11.97
2022-12-26T12:32:18.017Z,11.96
2022-12-26T12:33:18.026Z,11.99
2022-12-26T12:34:18.031Z,12
2022-12-26T12:35:18.060Z,12
2022-12-26T12:36:18.032Z,11.86
2022-12-26T12:37:18.047Z,12.12
2022-12-26T12:38:18.051Z,11.95
2022-12-26T12:39:18.075Z,11.95
2022-12-26T12:40:19.123Z,12.07
2022-12-26T12:41:18.027Z,11.96
2022-12-26T12:42:18.030Z,12.02
2022-12-26T12:43:18.030Z,12
2022-12-26T12:44:18.073Z,12.03
2022-12-26T12:45:18.069Z,12.1
2022-12-26T12:46:18.174Z,12.02
2022-12-26T12:47:18.054Z,12.03
2022-12-26T12:48:18.047Z,12.26
2022-12-26T12:49:19.113Z,12.17
2022-12-26T12:50:18.125Z,12.11
2022-12-26T12:51:18.058Z,12.15
2022-12-26T12:52:18.054Z,12.07
2022-12-26T12:53:18.080Z,12.15
2022-12-26T12:54:18.060Z,12.29
2022-12-26T12:55:18.084Z,12.11
2022-12-26T12:56:18.085Z,12
2022-12-26T12:57:18.066Z,12.02
2022-12-26T12:58:18.077Z,12.26
2022-12-26T12:59:18.074Z,12.14
2022-12-26T13:00:18.155Z,12.17
2022-12-26T13:01:18.712Z,12.17
2022-12-26T13:02:25.396Z,12.21
2022-12-26T13:03:18.209Z,12.2
2022-12-26T13:04:18.127Z,12.26
2022-12-26T13:05:18.174Z,12.11
2022-12-26T13:06:18.101Z,12.11
2022-12-26T13:07:18.378Z,12.21
2022-12-26T13:08:18.087Z,12.26
2022-12-26T13:09:18.137Z,12.23